sensor_id;sensor_type;location;lat;lon;timestamp;temperature;humidity
5578;DHT22;2811;51.900;10.734;2023-07-02T00:01:34;18.20;99.90
5578;DHT22;2811;51.900;10.734;2023-07-02T00:04:00;18.10;99.90
5578;DHT22;2811;51.900;10.734;2023-07-02T00:06:27;18.10;99.90
5578;DHT22;2811;51.900;10.734;2023-07-02T00:08:54;18.00;99.90
5578;DHT22;2811;51.900;10.734;2023-07-02T00:11:20;17.80;99.90
5578;DHT22;2811;51.900;10.734;2023-07-02T00:13:47;17.90;99.90
5578;DHT22;2811;51.900;10.734;2023-07-02T00:16:13;18.00;99.90
5578;DHT22;2811;51.900;10.734;2023-07-02T00:18:41;18.00;99.90
5578;DHT22;2811;51.900;10.734;2023-07-02T00:21:08;18.00;99.90
5578;DHT22;2811;51.900;10.734;2023-07-02T00:23:38;18.10;99.90
5578;DHT22;2811;51.900;10.734;2023-07-02T00:26:05;18.10;99.90
5578;DHT22;2811;51.900;10.734;2023-07-02T00:28:31;18.10;99.90
5578;DHT22;2811;51.900;10.734;2023-07-02T00:30:58;18.20;99.90
5578;DHT22;2811;51.900;10.734;2023-07-02T00:33:24;18.30;99.90
5578;DHT22;2811;51.900;10.734;2023-07-02T00:35:52;18.40;99.90
5578;DHT22;2811;51.900;10.734;2023-07-02T00:38:19;18.40;99.90
5578;DHT22;2811;51.900;10.734;2023-07-02T00:40:46;18.40;99.90
5578;DHT22;2811;51.900;10.734;2023-07-02T00:43:12;18.20;99.90
5578;DHT22;2811;51.900;10.734;2023-07-02T00:45:39;18.30;99.90
5578;DHT22;2811;51.900;10.734;2023-07-02T00:48:06;18.10;99.90
5578;DHT22;2811;51.900;10.734;2023-07-02T00:50:32;18.10;99.90
5578;DHT22;2811;51.900;10.734;2023-07-02T00:53:00;18.10;99.90
5578;DHT22;2811;51.900;10.734;2023-07-02T00:55:27;18.10;99.90
5578;DHT22;2811;51.900;10.734;2023-07-02T00:57:53;18.10;99.90
5578;DHT22;2811;51.900;10.734;2023-07-02T01:00:22;18.00;99.90
5578;DHT22;2811;51.900;10.734;2023-07-02T01:02:53;18.20;99.90
5578;DHT22;2811;51.900;10.734;2023-07-02T01:05:24;18.30;99.90
5578;DHT22;2811;51.900;10.734;2023-07-02T01:07:51;18.30;99.90
5578;DHT22;2811;51.900;10.734;2023-07-02T01:10:19;18.20;99.90
5578;DHT22;2811;51.900;10.734;2023-07-02T01:12:46;18.30;99.90
5578;DHT22;2811;51.900;10.734;2023-07-02T01:15:13;18.30;99.90
5578;DHT22;2811;51.900;10.734;2023-07-02T01:17:40;18.50;99.90
5578;DHT22;2811;51.900;10.734;2023-07-02T01:20:10;18.40;99.90
5578;DHT22;2811;51.900;10.734;2023-07-02T01:22:37;18.40;99.90
5578;DHT22;2811;51.900;10.734;2023-07-02T01:25:05;18.20;99.90
5578;DHT22;2811;51.900;10.734;2023-07-02T01:27:33;17.90;99.90
5578;DHT22;2811;51.900;10.734;2023-07-02T01:30:01;17.70;99.90
5578;DHT22;2811;51.900;10.734;2023-07-02T01:32:28;17.70;99.90
5578;DHT22;2811;51.900;10.734;2023-07-02T01:34:54;17.70;99.90
5578;DHT22;2811;51.900;10.734;2023-07-02T01:37:22;17.80;99.90
5578;DHT22;2811;51.900;10.734;2023-07-02T01:39:49;17.70;99.90
5578;DHT22;2811;51.900;10.734;2023-07-02T01:42:17;17.70;99.90
5578;DHT22;2811;51.900;10.734;2023-07-02T01:44:45;17.70;99.90
5578;DHT22;2811;51.900;10.734;2023-07-02T01:47:13;17.60;99.90
5578;DHT22;2811;51.900;10.734;2023-07-02T01:49:41;17.50;99.90
5578;DHT22;2811;51.900;10.734;2023-07-02T01:52:07;17.50;99.90
5578;DHT22;2811;51.900;10.734;2023-07-02T01:54:35;17.50;99.90
5578;DHT22;2811;51.900;10.734;2023-07-02T01:57:03;17.60;99.90
5578;DHT22;2811;51.900;10.734;2023-07-02T01:59:30;17.60;99.90
5578;DHT22;2811;51.900;10.734;2023-07-02T02:01:56;17.60;99.90
5578;DHT22;2811;51.900;10.734;2023-07-02T02:04:23;17.50;99.90
5578;DHT22;2811;51.900;10.734;2023-07-02T02:06:50;17.40;99.90
5578;DHT22;2811;51.900;10.734;2023-07-02T02:09:17;17.50;99.90
5578;DHT22;2811;51.900;10.734;2023-07-02T02:11:47;17.50;99.90
5578;DHT22;2811;51.900;10.734;2023-07-02T02:14:14;17.50;99.90
5578;DHT22;2811;51.900;10.734;2023-07-02T02:16:42;17.60;99.90
5578;DHT22;2811;51.900;10.734;2023-07-02T02:19:10;17.60;99.90
5578;DHT22;2811;51.900;10.734;2023-07-02T02:21:37;17.70;99.90
5578;DHT22;2811;51.900;10.734;2023-07-02T02:24:05;17.70;99.90
5578;DHT22;2811;51.900;10.734;2023-07-02T02:26:32;17.60;99.90
5578;DHT22;2811;51.900;10.734;2023-07-02T02:29:00;17.60;99.90
5578;DHT22;2811;51.900;10.734;2023-07-02T02:31:26;17.60;99.90
5578;DHT22;2811;51.900;10.734;2023-07-02T02:33:53;17.50;99.90
5578;DHT22;2811;51.900;10.734;2023-07-02T02:36:20;17.50;99.90
5578;DHT22;2811;51.900;10.734;2023-07-02T02:38:46;17.40;99.90
5578;DHT22;2811;51.900;10.734;2023-07-02T02:41:13;17.30;99.90
5578;DHT22;2811;51.900;10.734;2023-07-02T02:43:41;17.30;99.90
5578;DHT22;2811;51.900;10.734;2023-07-02T02:46:09;17.30;99.90
5578;DHT22;2811;51.900;10.734;2023-07-02T02:48:36;17.20;99.90
5578;DHT22;2811;51.900;10.734;2023-07-02T02:51:02;17.20;99.90
5578;DHT22;2811;51.900;10.734;2023-07-02T02:53:29;17.10;99.90
5578;DHT22;2811;51.900;10.734;2023-07-02T02:55:56;17.00;99.90
5578;DHT22;2811;51.900;10.734;2023-07-02T02:58:22;17.00;99.90
5578;DHT22;2811;51.900;10.734;2023-07-02T03:00:49;17.00;99.90
5578;DHT22;2811;51.900;10.734;2023-07-02T03:03:18;16.90;99.90
5578;DHT22;2811;51.900;10.734;2023-07-02T03:05:45;16.80;99.90
5578;DHT22;2811;51.900;10.734;2023-07-02T03:08:13;16.70;99.90
5578;DHT22;2811;51.900;10.734;2023-07-02T03:10:40;16.60;99.90
5578;DHT22;2811;51.900;10.734;2023-07-02T03:13:06;16.60;99.90
5578;DHT22;2811;51.900;10.734;2023-07-02T03:15:33;16.60;99.90
5578;DHT22;2811;51.900;10.734;2023-07-02T03:18:00;16.40;99.90
5578;DHT22;2811;51.900;10.734;2023-07-02T03:20:27;16.50;99.90
5578;DHT22;2811;51.900;10.734;2023-07-02T03:22:54;16.50;99.90
5578;DHT22;2811;51.900;10.734;2023-07-02T03:25:21;16.40;99.90
5578;DHT22;2811;51.900;10.734;2023-07-02T03:27:47;16.40;99.90
5578;DHT22;2811;51.900;10.734;2023-07-02T03:30:14;16.40;99.90
5578;DHT22;2811;51.900;10.734;2023-07-02T03:32:40;16.40;99.90
5578;DHT22;2811;51.900;10.734;2023-07-02T03:35:07;16.40;99.90
5578;DHT22;2811;51.900;10.734;2023-07-02T03:37:35;16.50;99.90
5578;DHT22;2811;51.900;10.734;2023-07-02T03:40:02;16.50;99.90
5578;DHT22;2811;51.900;10.734;2023-07-02T03:42:29;16.60;99.90
5578;DHT22;2811;51.900;10.734;2023-07-02T03:44:56;16.60;99.90
5578;DHT22;2811;51.900;10.734;2023-07-02T03:47:22;16.60;99.90
5578;DHT22;2811;51.900;10.734;2023-07-02T03:49:49;16.60;99.90
5578;DHT22;2811;51.900;10.734;2023-07-02T03:52:16;16.70;99.90
5578;DHT22;2811;51.900;10.734;2023-07-02T03:54:43;16.70;99.90
5578;DHT22;2811;51.900;10.734;2023-07-02T03:57:10;16.70;99.90
5578;DHT22;2811;51.900;10.734;2023-07-02T03:59:37;16.90;99.90
5578;DHT22;2811;51.900;10.734;2023-07-02T04:02:04;16.90;99.90
5578;DHT22;2811;51.900;10.734;2023-07-02T04:04:31;17.10;99.90
5578;DHT22;2811;51.900;10.734;2023-07-02T04:06:57;17.20;99.90
5578;DHT22;2811;51.900;10.734;2023-07-02T04:09:24;17.40;99.90
5578;DHT22;2811;51.900;10.734;2023-07-02T04:11:52;17.40;99.90
5578;DHT22;2811;51.900;10.734;2023-07-02T04:14:18;17.50;99.90
5578;DHT22;2811;51.900;10.734;2023-07-02T04:16:45;17.50;99.90
5578;DHT22;2811;51.900;10.734;2023-07-02T04:19:12;17.30;99.90
5578;DHT22;2811;51.900;10.734;2023-07-02T04:21:38;17.40;99.90
5578;DHT22;2811;51.900;10.734;2023-07-02T04:24:05;17.40;99.90
5578;DHT22;2811;51.900;10.734;2023-07-02T04:26:32;17.40;99.90
5578;DHT22;2811;51.900;10.734;2023-07-02T04:28:59;17.40;99.90
5578;DHT22;2811;51.900;10.734;2023-07-02T04:31:26;17.40;99.90
5578;DHT22;2811;51.900;10.734;2023-07-02T04:33:53;17.60;99.90
5578;DHT22;2811;51.900;10.734;2023-07-02T04:36:19;17.50;99.90
5578;DHT22;2811;51.900;10.734;2023-07-02T04:38:46;17.50;99.90
5578;DHT22;2811;51.900;10.734;2023-07-02T04:41:12;17.50;99.90
5578;DHT22;2811;51.900;10.734;2023-07-02T04:43:39;17.70;99.90
5578;DHT22;2811;51.900;10.734;2023-07-02T04:46:07;17.70;99.90
5578;DHT22;2811;51.900;10.734;2023-07-02T04:48:33;18.10;99.90
5578;DHT22;2811;51.900;10.734;2023-07-02T04:51:00;18.20;99.90
5578;DHT22;2811;51.900;10.734;2023-07-02T04:53:27;18.10;99.90
5578;DHT22;2811;51.900;10.734;2023-07-02T04:55:53;18.10;99.90
5578;DHT22;2811;51.900;10.734;2023-07-02T04:58:20;18.10;99.90
5578;DHT22;2811;51.900;10.734;2023-07-02T05:00:46;18.10;99.90
5578;DHT22;2811;51.900;10.734;2023-07-02T05:03:14;18.10;99.90
5578;DHT22;2811;51.900;10.734;2023-07-02T05:05:41;18.10;99.90
5578;DHT22;2811;51.900;10.734;2023-07-02T05:08:08;18.10;99.90
5578;DHT22;2811;51.900;10.734;2023-07-02T05:10:34;18.20;99.90
5578;DHT22;2811;51.900;10.734;2023-07-02T05:13:01;18.20;99.90
5578;DHT22;2811;51.900;10.734;2023-07-02T05:15:27;18.00;99.90
5578;DHT22;2811;51.900;10.734;2023-07-02T05:17:54;18.10;99.90
5578;DHT22;2811;51.900;10.734;2023-07-02T05:20:22;18.00;99.90
5578;DHT22;2811;51.900;10.734;2023-07-02T05:22:49;17.90;99.90
5578;DHT22;2811;51.900;10.734;2023-07-02T05:25:15;17.90;99.90
5578;DHT22;2811;51.900;10.734;2023-07-02T05:27:42;17.90;99.90
5578;DHT22;2811;51.900;10.734;2023-07-02T05:30:09;17.90;99.90
5578;DHT22;2811;51.900;10.734;2023-07-02T05:32:36;18.00;99.90
5578;DHT22;2811;51.900;10.734;2023-07-02T05:35:05;18.00;99.90
5578;DHT22;2811;51.900;10.734;2023-07-02T05:37:33;18.10;99.90
5578;DHT22;2811;51.900;10.734;2023-07-02T05:39:59;18.00;99.90
5578;DHT22;2811;51.900;10.734;2023-07-02T05:42:26;18.10;99.90
5578;DHT22;2811;51.900;10.734;2023-07-02T05:44:52;18.30;99.90
5578;DHT22;2811;51.900;10.734;2023-07-02T05:47:19;18.30;99.90
5578;DHT22;2811;51.900;10.734;2023-07-02T05:49:46;18.00;99.90
5578;DHT22;2811;51.900;10.734;2023-07-02T05:52:12;17.80;99.90
5578;DHT22;2811;51.900;10.734;2023-07-02T05:54:41;17.90;99.90
5578;DHT22;2811;51.900;10.734;2023-07-02T05:57:07;18.00;99.90
5578;DHT22;2811;51.900;10.734;2023-07-02T05:59:34;18.00;99.90
5578;DHT22;2811;51.900;10.734;2023-07-02T06:02:01;18.00;99.90
5578;DHT22;2811;51.900;10.734;2023-07-02T06:04:27;17.90;99.90
5578;DHT22;2811;51.900;10.734;2023-07-02T06:06:54;17.90;99.90
5578;DHT22;2811;51.900;10.734;2023-07-02T06:09:20;18.00;99.90
5578;DHT22;2811;51.900;10.734;2023-07-02T06:11:48;17.90;99.90
5578;DHT22;2811;51.900;10.734;2023-07-02T06:14:15;17.90;99.90
5578;DHT22;2811;51.900;10.734;2023-07-02T06:16:42;17.90;99.90
5578;DHT22;2811;51.900;10.734;2023-07-02T06:19:08;17.80;99.90
5578;DHT22;2811;51.900;10.734;2023-07-02T06:21:36;17.80;99.90
5578;DHT22;2811;51.900;10.734;2023-07-02T06:24:03;17.90;99.90
5578;DHT22;2811;51.900;10.734;2023-07-02T06:26:30;17.80;99.90
5578;DHT22;2811;51.900;10.734;2023-07-02T06:28:58;17.80;99.90
5578;DHT22;2811;51.900;10.734;2023-07-02T06:31:25;17.80;99.90
5578;DHT22;2811;51.900;10.734;2023-07-02T06:33:52;17.90;99.90
5578;DHT22;2811;51.900;10.734;2023-07-02T06:36:19;17.80;99.90
5578;DHT22;2811;51.900;10.734;2023-07-02T06:38:45;17.70;99.90
5578;DHT22;2811;51.900;10.734;2023-07-02T06:41:12;17.70;99.90
5578;DHT22;2811;51.900;10.734;2023-07-02T06:43:39;17.20;99.90
5578;DHT22;2811;51.900;10.734;2023-07-02T06:46:09;16.30;99.90
5578;DHT22;2811;51.900;10.734;2023-07-02T06:48:36;15.70;99.90
5578;DHT22;2811;51.900;10.734;2023-07-02T06:51:03;15.50;99.90
5578;DHT22;2811;51.900;10.734;2023-07-02T06:53:29;15.40;99.90
5578;DHT22;2811;51.900;10.734;2023-07-02T06:55:56;15.20;99.90
5578;DHT22;2811;51.900;10.734;2023-07-02T06:58:23;15.20;99.90
5578;DHT22;2811;51.900;10.734;2023-07-02T07:00:49;15.10;99.90
5578;DHT22;2811;51.900;10.734;2023-07-02T07:03:17;15.10;99.90
5578;DHT22;2811;51.900;10.734;2023-07-02T07:05:44;15.10;99.90
5578;DHT22;2811;51.900;10.734;2023-07-02T07:08:10;15.10;99.90
5578;DHT22;2811;51.900;10.734;2023-07-02T07:10:37;15.10;99.90
5578;DHT22;2811;51.900;10.734;2023-07-02T07:13:03;15.10;99.90
5578;DHT22;2811;51.900;10.734;2023-07-02T07:15:33;15.20;99.90
5578;DHT22;2811;51.900;10.734;2023-07-02T07:18:00;15.20;99.90
5578;DHT22;2811;51.900;10.734;2023-07-02T07:20:29;15.30;99.90
5578;DHT22;2811;51.900;10.734;2023-07-02T07:22:55;15.30;99.90
5578;DHT22;2811;51.900;10.734;2023-07-02T07:25:22;15.40;99.90
5578;DHT22;2811;51.900;10.734;2023-07-02T07:27:49;15.60;99.90
5578;DHT22;2811;51.900;10.734;2023-07-02T07:30:16;15.70;99.90
5578;DHT22;2811;51.900;10.734;2023-07-02T07:32:48;15.90;99.90
5578;DHT22;2811;51.900;10.734;2023-07-02T07:35:15;16.00;99.90
5578;DHT22;2811;51.900;10.734;2023-07-02T07:37:43;16.20;99.90
5578;DHT22;2811;51.900;10.734;2023-07-02T07:40:10;16.30;99.90
5578;DHT22;2811;51.900;10.734;2023-07-02T07:42:37;16.60;99.90
5578;DHT22;2811;51.900;10.734;2023-07-02T07:45:04;16.80;99.90
5578;DHT22;2811;51.900;10.734;2023-07-02T07:47:31;17.10;99.90
5578;DHT22;2811;51.900;10.734;2023-07-02T07:49:57;17.10;99.90
5578;DHT22;2811;51.900;10.734;2023-07-02T07:52:24;17.50;99.90
5578;DHT22;2811;51.900;10.734;2023-07-02T07:54:52;17.90;99.90
5578;DHT22;2811;51.900;10.734;2023-07-02T07:57:19;18.40;99.90
5578;DHT22;2811;51.900;10.734;2023-07-02T07:59:45;18.70;99.90
5578;DHT22;2811;51.900;10.734;2023-07-02T08:02:12;18.70;99.90
5578;DHT22;2811;51.900;10.734;2023-07-02T08:04:38;18.50;99.90
5578;DHT22;2811;51.900;10.734;2023-07-02T08:07:05;18.70;99.90
5578;DHT22;2811;51.900;10.734;2023-07-02T08:09:34;18.60;99.90
5578;DHT22;2811;51.900;10.734;2023-07-02T08:12:02;18.90;99.90
5578;DHT22;2811;51.900;10.734;2023-07-02T08:14:29;19.10;99.90
5578;DHT22;2811;51.900;10.734;2023-07-02T08:16:56;18.60;99.90
5578;DHT22;2811;51.900;10.734;2023-07-02T08:19:22;18.70;99.90
5578;DHT22;2811;51.900;10.734;2023-07-02T08:21:50;18.90;99.90
5578;DHT22;2811;51.900;10.734;2023-07-02T08:24:16;18.90;99.90
5578;DHT22;2811;51.900;10.734;2023-07-02T08:26:43;18.80;99.90
5578;DHT22;2811;51.900;10.734;2023-07-02T08:29:12;18.80;99.90
5578;DHT22;2811;51.900;10.734;2023-07-02T08:31:40;19.00;99.90
5578;DHT22;2811;51.900;10.734;2023-07-02T08:34:06;18.80;99.90
5578;DHT22;2811;51.900;10.734;2023-07-02T08:36:33;18.70;99.90
5578;DHT22;2811;51.900;10.734;2023-07-02T08:39:00;18.90;99.90
5578;DHT22;2811;51.900;10.734;2023-07-02T08:41:26;19.00;99.90
5578;DHT22;2811;51.900;10.734;2023-07-02T08:43:55;19.10;99.90
5578;DHT22;2811;51.900;10.734;2023-07-02T08:46:23;19.30;99.90
5578;DHT22;2811;51.900;10.734;2023-07-02T08:48:50;19.30;99.90
5578;DHT22;2811;51.900;10.734;2023-07-02T08:51:18;19.40;99.90
5578;DHT22;2811;51.900;10.734;2023-07-02T08:53:44;19.30;99.90
5578;DHT22;2811;51.900;10.734;2023-07-02T08:56:11;19.20;99.90
5578;DHT22;2811;51.900;10.734;2023-07-02T08:58:37;19.30;99.90
5578;DHT22;2811;51.900;10.734;2023-07-02T09:01:05;19.00;99.90
5578;DHT22;2811;51.900;10.734;2023-07-02T09:03:34;18.90;99.90
5578;DHT22;2811;51.900;10.734;2023-07-02T09:06:02;18.90;99.90
5578;DHT22;2811;51.900;10.734;2023-07-02T09:08:29;18.80;99.90
5578;DHT22;2811;51.900;10.734;2023-07-02T09:11:08;18.80;99.90
5578;DHT22;2811;51.900;10.734;2023-07-02T09:13:48;19.10;99.90
5578;DHT22;2811;51.900;10.734;2023-07-02T09:16:25;19.20;99.90
5578;DHT22;2811;51.900;10.734;2023-07-02T09:19:01;19.30;99.90
5578;DHT22;2811;51.900;10.734;2023-07-02T09:21:38;19.70;99.90
5578;DHT22;2811;51.900;10.734;2023-07-02T09:24:15;19.50;99.90
5578;DHT22;2811;51.900;10.734;2023-07-02T09:26:43;19.40;99.90
5578;DHT22;2811;51.900;10.734;2023-07-02T09:29:10;19.30;99.90
5578;DHT22;2811;51.900;10.734;2023-07-02T09:31:46;19.30;99.90
5578;DHT22;2811;51.900;10.734;2023-07-02T09:34:14;19.30;99.90
5578;DHT22;2811;51.900;10.734;2023-07-02T09:36:41;19.50;99.90
5578;DHT22;2811;51.900;10.734;2023-07-02T09:39:10;19.50;99.90
5578;DHT22;2811;51.900;10.734;2023-07-02T09:41:38;19.60;99.90
5578;DHT22;2811;51.900;10.734;2023-07-02T09:44:05;19.60;99.90
5578;DHT22;2811;51.900;10.734;2023-07-02T09:46:33;19.50;99.90
5578;DHT22;2811;51.900;10.734;2023-07-02T09:49:00;19.60;99.90
5578;DHT22;2811;51.900;10.734;2023-07-02T09:51:28;19.60;99.90
5578;DHT22;2811;51.900;10.734;2023-07-02T09:53:55;19.80;99.90
5578;DHT22;2811;51.900;10.734;2023-07-02T09:56:22;19.90;99.90
5578;DHT22;2811;51.900;10.734;2023-07-02T09:58:49;20.10;99.90
5578;DHT22;2811;51.900;10.734;2023-07-02T10:01:16;20.10;99.90
5578;DHT22;2811;51.900;10.734;2023-07-02T10:03:42;20.10;99.90
5578;DHT22;2811;51.900;10.734;2023-07-02T10:06:09;20.10;99.90
5578;DHT22;2811;51.900;10.734;2023-07-02T10:08:37;20.20;99.90
5578;DHT22;2811;51.900;10.734;2023-07-02T10:11:10;19.60;99.90
5578;DHT22;2811;51.900;10.734;2023-07-02T10:13:39;20.10;99.90
5578;DHT22;2811;51.900;10.734;2023-07-02T10:16:06;20.30;99.90
5578;DHT22;2811;51.900;10.734;2023-07-02T10:18:33;20.20;99.90
5578;DHT22;2811;51.900;10.734;2023-07-02T10:21:00;20.30;99.90
5578;DHT22;2811;51.900;10.734;2023-07-02T10:23:33;20.60;99.90
5578;DHT22;2811;51.900;10.734;2023-07-02T10:26:13;20.80;99.90
5578;DHT22;2811;51.900;10.734;2023-07-02T10:28:39;20.70;99.90
5578;DHT22;2811;51.900;10.734;2023-07-02T10:31:17;20.70;99.90
5578;DHT22;2811;51.900;10.734;2023-07-02T10:33:44;20.50;99.90
5578;DHT22;2811;51.900;10.734;2023-07-02T10:36:18;20.50;99.90
5578;DHT22;2811;51.900;10.734;2023-07-02T10:38:45;20.70;99.90
5578;DHT22;2811;51.900;10.734;2023-07-02T10:41:23;20.60;99.90
5578;DHT22;2811;51.900;10.734;2023-07-02T10:43:50;20.70;99.90
5578;DHT22;2811;51.900;10.734;2023-07-02T10:46:20;20.70;99.90
5578;DHT22;2811;51.900;10.734;2023-07-02T10:48:53;20.70;99.90
5578;DHT22;2811;51.900;10.734;2023-07-02T10:51:20;20.80;99.90
5578;DHT22;2811;51.900;10.734;2023-07-02T10:53:56;21.00;99.90
5578;DHT22;2811;51.900;10.734;2023-07-02T10:56:25;21.30;99.90
5578;DHT22;2811;51.900;10.734;2023-07-02T10:58:53;21.60;99.30
5578;DHT22;2811;51.900;10.734;2023-07-02T11:01:24;21.80;97.80
5578;DHT22;2811;51.900;10.734;2023-07-02T11:04:02;22.00;98.90
5578;DHT22;2811;51.900;10.734;2023-07-02T11:06:31;22.10;98.90
5578;DHT22;2811;51.900;10.734;2023-07-02T11:08:59;21.70;97.80
5578;DHT22;2811;51.900;10.734;2023-07-02T11:11:27;20.90;99.40
5578;DHT22;2811;51.900;10.734;2023-07-02T11:13:54;20.30;99.90
5578;DHT22;2811;51.900;10.734;2023-07-02T11:16:23;20.00;99.90
5578;DHT22;2811;51.900;10.734;2023-07-02T11:19:06;20.00;99.90
5578;DHT22;2811;51.900;10.734;2023-07-02T11:21:32;20.10;99.90
5578;DHT22;2811;51.900;10.734;2023-07-02T11:24:02;20.40;99.90
5578;DHT22;2811;51.900;10.734;2023-07-02T11:26:36;20.60;99.90
5578;DHT22;2811;51.900;10.734;2023-07-02T11:29:03;20.70;99.90
5578;DHT22;2811;51.900;10.734;2023-07-02T11:31:29;20.70;99.90
5578;DHT22;2811;51.900;10.734;2023-07-02T11:33:56;20.80;99.90
5578;DHT22;2811;51.900;10.734;2023-07-02T11:36:23;20.80;99.90
5578;DHT22;2811;51.900;10.734;2023-07-02T11:38:51;20.70;99.50
5578;DHT22;2811;51.900;10.734;2023-07-02T11:41:18;20.70;99.10
5578;DHT22;2811;51.900;10.734;2023-07-02T11:43:47;20.80;99.30
5578;DHT22;2811;51.900;10.734;2023-07-02T11:46:14;20.80;99.90
5578;DHT22;2811;51.900;10.734;2023-07-02T11:48:41;20.70;99.70
5578;DHT22;2811;51.900;10.734;2023-07-02T11:51:07;20.60;99.30
5578;DHT22;2811;51.900;10.734;2023-07-02T11:53:34;20.60;98.90
5578;DHT22;2811;51.900;10.734;2023-07-02T11:56:00;20.50;98.40
5578;DHT22;2811;51.900;10.734;2023-07-02T11:58:27;20.50;98.50
5578;DHT22;2811;51.900;10.734;2023-07-02T12:00:55;20.60;99.50
5578;DHT22;2811;51.900;10.734;2023-07-02T12:03:21;20.60;98.30
5578;DHT22;2811;51.900;10.734;2023-07-02T12:05:48;20.90;98.70
5578;DHT22;2811;51.900;10.734;2023-07-02T12:08:15;21.30;97.80
5578;DHT22;2811;51.900;10.734;2023-07-02T12:10:41;21.80;97.30
5578;DHT22;2811;51.900;10.734;2023-07-02T12:13:08;22.30;96.90
5578;DHT22;2811;51.900;10.734;2023-07-02T12:15:35;22.20;95.70
5578;DHT22;2811;51.900;10.734;2023-07-02T12:18:03;22.20;95.30
5578;DHT22;2811;51.900;10.734;2023-07-02T12:20:30;22.20;95.70
5578;DHT22;2811;51.900;10.734;2023-07-02T12:22:56;22.20;96.10
5578;DHT22;2811;51.900;10.734;2023-07-02T12:25:23;22.10;94.90
5578;DHT22;2811;51.900;10.734;2023-07-02T12:27:50;21.90;95.10
5578;DHT22;2811;51.900;10.734;2023-07-02T12:30:17;21.60;96.30
5578;DHT22;2811;51.900;10.734;2023-07-02T12:32:44;21.50;95.80
5578;DHT22;2811;51.900;10.734;2023-07-02T12:35:12;21.70;95.30
5578;DHT22;2811;51.900;10.734;2023-07-02T12:37:45;21.80;95.70
5578;DHT22;2811;51.900;10.734;2023-07-02T12:40:13;22.00;95.60
5578;DHT22;2811;51.900;10.734;2023-07-02T12:42:40;22.40;94.60
5578;DHT22;2811;51.900;10.734;2023-07-02T12:45:09;21.90;95.50
5578;DHT22;2811;51.900;10.734;2023-07-02T12:47:36;21.80;94.70
5578;DHT22;2811;51.900;10.734;2023-07-02T12:50:03;21.80;95.40
5578;DHT22;2811;51.900;10.734;2023-07-02T12:52:31;21.70;94.70
5578;DHT22;2811;51.900;10.734;2023-07-02T12:54:58;21.60;95.10
5578;DHT22;2811;51.900;10.734;2023-07-02T12:57:24;21.60;95.40
5578;DHT22;2811;51.900;10.734;2023-07-02T12:59:52;21.50;95.70
5578;DHT22;2811;51.900;10.734;2023-07-02T13:02:19;21.60;95.60
5578;DHT22;2811;51.900;10.734;2023-07-02T13:04:45;21.80;94.90
5578;DHT22;2811;51.900;10.734;2023-07-02T13:07:12;21.80;94.30
5578;DHT22;2811;51.900;10.734;2023-07-02T13:09:40;21.90;94.50
5578;DHT22;2811;51.900;10.734;2023-07-02T13:12:07;21.90;94.90
5578;DHT22;2811;51.900;10.734;2023-07-02T13:14:34;21.80;94.70
5578;DHT22;2811;51.900;10.734;2023-07-02T13:17:01;21.90;94.60
5578;DHT22;2811;51.900;10.734;2023-07-02T13:19:28;22.00;93.60
5578;DHT22;2811;51.900;10.734;2023-07-02T13:21:55;22.00;94.80
5578;DHT22;2811;51.900;10.734;2023-07-02T13:24:21;21.90;93.50
5578;DHT22;2811;51.900;10.734;2023-07-02T13:26:49;21.60;94.00
5578;DHT22;2811;51.900;10.734;2023-07-02T13:29:18;21.70;94.10
5578;DHT22;2811;51.900;10.734;2023-07-02T13:31:45;22.20;94.30
5578;DHT22;2811;51.900;10.734;2023-07-02T13:34:11;22.80;94.30
5578;DHT22;2811;51.900;10.734;2023-07-02T13:36:38;22.80;92.50
5578;DHT22;2811;51.900;10.734;2023-07-02T13:39:05;23.00;91.90
5578;DHT22;2811;51.900;10.734;2023-07-02T13:41:32;23.00;91.90
5578;DHT22;2811;51.900;10.734;2023-07-02T13:44:00;22.80;91.90
5578;DHT22;2811;51.900;10.734;2023-07-02T13:46:27;22.90;92.30
5578;DHT22;2811;51.900;10.734;2023-07-02T13:48:53;23.00;92.50
5578;DHT22;2811;51.900;10.734;2023-07-02T13:51:20;22.60;92.30
5578;DHT22;2811;51.900;10.734;2023-07-02T13:53:47;22.30;93.00
5578;DHT22;2811;51.900;10.734;2023-07-02T13:56:13;22.50;93.60
5578;DHT22;2811;51.900;10.734;2023-07-02T13:58:59;22.80;93.60
5578;DHT22;2811;51.900;10.734;2023-07-02T14:01:26;23.10;92.70
5578;DHT22;2811;51.900;10.734;2023-07-02T14:03:53;22.70;92.20
5578;DHT22;2811;51.900;10.734;2023-07-02T14:06:20;22.60;93.00
5578;DHT22;2811;51.900;10.734;2023-07-02T14:08:47;22.50;92.60
5578;DHT22;2811;51.900;10.734;2023-07-02T14:11:13;22.50;93.00
5578;DHT22;2811;51.900;10.734;2023-07-02T14:13:40;22.30;92.10
5578;DHT22;2811;51.900;10.734;2023-07-02T14:16:08;22.30;93.60
5578;DHT22;2811;51.900;10.734;2023-07-02T14:18:34;22.10;92.50
5578;DHT22;2811;51.900;10.734;2023-07-02T14:21:01;22.10;92.30
5578;DHT22;2811;51.900;10.734;2023-07-02T14:23:28;22.20;92.20
5578;DHT22;2811;51.900;10.734;2023-07-02T14:25:54;22.40;92.90
5578;DHT22;2811;51.900;10.734;2023-07-02T14:28:22;22.70;91.30
5578;DHT22;2811;51.900;10.734;2023-07-02T14:30:56;22.70;90.40
5578;DHT22;2811;51.900;10.734;2023-07-02T14:33:24;22.20;91.60
5578;DHT22;2811;51.900;10.734;2023-07-02T14:35:51;22.00;92.50
5578;DHT22;2811;51.900;10.734;2023-07-02T14:38:18;21.90;91.50
5578;DHT22;2811;51.900;10.734;2023-07-02T14:40:44;22.10;92.10
5578;DHT22;2811;51.900;10.734;2023-07-02T14:43:11;22.30;92.20
5578;DHT22;2811;51.900;10.734;2023-07-02T14:45:44;22.50;92.10
5578;DHT22;2811;51.900;10.734;2023-07-02T14:48:11;22.90;92.70
5578;DHT22;2811;51.900;10.734;2023-07-02T14:50:43;23.20;91.80
5578;DHT22;2811;51.900;10.734;2023-07-02T14:53:11;23.20;91.10
5578;DHT22;2811;51.900;10.734;2023-07-02T14:55:37;23.20;91.70
5578;DHT22;2811;51.900;10.734;2023-07-02T14:58:05;23.10;91.10
5578;DHT22;2811;51.900;10.734;2023-07-02T15:00:32;23.10;90.80
5578;DHT22;2811;51.900;10.734;2023-07-02T15:02:58;23.30;90.90
5578;DHT22;2811;51.900;10.734;2023-07-02T15:05:25;23.30;92.20
5578;DHT22;2811;51.900;10.734;2023-07-02T15:07:53;23.30;91.10
5578;DHT22;2811;51.900;10.734;2023-07-02T15:10:19;23.00;92.00
5578;DHT22;2811;51.900;10.734;2023-07-02T15:12:46;22.60;92.30
5578;DHT22;2811;51.900;10.734;2023-07-02T15:15:13;22.40;92.90
5578;DHT22;2811;51.900;10.734;2023-07-02T15:17:41;22.30;93.30
5578;DHT22;2811;51.900;10.734;2023-07-02T15:20:08;22.20;92.50
5578;DHT22;2811;51.900;10.734;2023-07-02T15:22:35;22.50;93.20
5578;DHT22;2811;51.900;10.734;2023-07-02T15:25:04;22.40;93.60
5578;DHT22;2811;51.900;10.734;2023-07-02T15:27:30;22.60;93.20
5578;DHT22;2811;51.900;10.734;2023-07-02T15:29:57;22.70;92.10
5578;DHT22;2811;51.900;10.734;2023-07-02T15:32:24;22.40;93.30
5578;DHT22;2811;51.900;10.734;2023-07-02T15:34:50;22.40;93.10
5578;DHT22;2811;51.900;10.734;2023-07-02T15:37:18;22.30;93.70
5578;DHT22;2811;51.900;10.734;2023-07-02T15:39:44;22.50;94.10
5578;DHT22;2811;51.900;10.734;2023-07-02T15:42:12;22.70;92.70
5578;DHT22;2811;51.900;10.734;2023-07-02T15:44:39;23.00;92.60
5578;DHT22;2811;51.900;10.734;2023-07-02T15:47:06;22.90;93.30